sensor_id;sensor_type;location;lat;lon;timestamp;temperature;humidity
2523;DHT22;1272;53.332;9.860;2023-02-17T00:01:21;8.20;99.90
2523;DHT22;1272;53.332;9.860;2023-02-17T00:03:48;8.20;99.90
2523;DHT22;1272;53.332;9.860;2023-02-17T00:06:16;8.20;99.90
2523;DHT22;1272;53.332;9.860;2023-02-17T00:08:43;8.20;99.90
2523;DHT22;1272;53.332;9.860;2023-02-17T00:11:09;8.20;99.90
2523;DHT22;1272;53.332;9.860;2023-02-17T00:13:34;8.20;99.90
2523;DHT22;1272;53.332;9.860;2023-02-17T00:16:08;8.20;99.90
2523;DHT22;1272;53.332;9.860;2023-02-17T00:18:35;8.30;99.90
2523;DHT22;1272;53.332;9.860;2023-02-17T00:21:17;8.20;99.90
2523;DHT22;1272;53.332;9.860;2023-02-17T00:23:44;8.20;99.90
2523;DHT22;1272;53.332;9.860;2023-02-17T00:26:10;8.20;99.90
2523;DHT22;1272;53.332;9.860;2023-02-17T00:28:35;8.20;99.90
2523;DHT22;1272;53.332;9.860;2023-02-17T00:31:10;8.20;99.90
2523;DHT22;1272;53.332;9.860;2023-02-17T00:33:36;8.20;99.90
2523;DHT22;1272;53.332;9.860;2023-02-17T00:36:05;8.20;99.90
2523;DHT22;1272;53.332;9.860;2023-02-17T00:38:31;8.20;99.90
2523;DHT22;1272;53.332;9.860;2023-02-17T00:40:57;8.20;99.90
2523;DHT22;1272;53.332;9.860;2023-02-17T00:43:23;8.30;99.90
2523;DHT22;1272;53.332;9.860;2023-02-17T00:45:48;8.20;99.90
2523;DHT22;1272;53.332;9.860;2023-02-17T00:48:14;8.20;99.90
2523;DHT22;1272;53.332;9.860;2023-02-17T00:50:40;8.20;99.90
2523;DHT22;1272;53.332;9.860;2023-02-17T00:53:05;8.30;99.90
2523;DHT22;1272;53.332;9.860;2023-02-17T00:55:31;8.30;99.90
2523;DHT22;1272;53.332;9.860;2023-02-17T00:57:57;8.40;99.90
2523;DHT22;1272;53.332;9.860;2023-02-17T01:00:22;8.40;99.90
2523;DHT22;1272;53.332;9.860;2023-02-17T01:02:48;8.30;99.90
2523;DHT22;1272;53.332;9.860;2023-02-17T01:05:14;8.30;99.90
2523;DHT22;1272;53.332;9.860;2023-02-17T01:07:40;8.30;99.90
2523;DHT22;1272;53.332;9.860;2023-02-17T01:10:07;8.30;99.90
2523;DHT22;1272;53.332;9.860;2023-02-17T01:12:32;8.30;99.90
2523;DHT22;1272;53.332;9.860;2023-02-17T01:14:58;8.30;99.90
2523;DHT22;1272;53.332;9.860;2023-02-17T01:17:24;8.30;99.90
2523;DHT22;1272;53.332;9.860;2023-02-17T01:19:50;8.40;99.90
2523;DHT22;1272;53.332;9.860;2023-02-17T01:22:16;8.40;99.90
2523;DHT22;1272;53.332;9.860;2023-02-17T01:24:41;8.40;99.90
2523;DHT22;1272;53.332;9.860;2023-02-17T01:27:07;8.50;99.90
2523;DHT22;1272;53.332;9.860;2023-02-17T01:29:33;8.50;99.90
2523;DHT22;1272;53.332;9.860;2023-02-17T01:31:58;8.50;99.90
2523;DHT22;1272;53.332;9.860;2023-02-17T01:34:24;8.50;99.90
2523;DHT22;1272;53.332;9.860;2023-02-17T01:36:50;8.50;99.90
2523;DHT22;1272;53.332;9.860;2023-02-17T01:39:16;8.50;99.90
2523;DHT22;1272;53.332;9.860;2023-02-17T01:41:42;8.60;99.90
2523;DHT22;1272;53.332;9.860;2023-02-17T01:46:38;8.60;99.90
2523;DHT22;1272;53.332;9.860;2023-02-17T01:51:41;8.60;99.90
2523;DHT22;1272;53.332;9.860;2023-02-17T01:54:41;8.60;99.90
2523;DHT22;1272;53.332;9.860;2023-02-17T01:57:05;8.60;99.90
2523;DHT22;1272;53.332;9.860;2023-02-17T01:59:31;8.70;99.90
2523;DHT22;1272;53.332;9.860;2023-02-17T02:01:59;8.70;99.90
2523;DHT22;1272;53.332;9.860;2023-02-17T02:04:30;8.70;99.90
2523;DHT22;1272;53.332;9.860;2023-02-17T02:06:56;8.70;99.90
2523;DHT22;1272;53.332;9.860;2023-02-17T02:09:31;8.70;99.90
2523;DHT22;1272;53.332;9.860;2023-02-17T02:11:59;8.70;99.90
2523;DHT22;1272;53.332;9.860;2023-02-17T02:14:25;8.60;99.90
2523;DHT22;1272;53.332;9.860;2023-02-17T02:17:13;8.70;99.90
2523;DHT22;1272;53.332;9.860;2023-02-17T02:20:22;8.70;99.90
2523;DHT22;1272;53.332;9.860;2023-02-17T02:28:05;8.70;99.90
2523;DHT22;1272;53.332;9.860;2023-02-17T02:33:33;8.70;99.90
2523;DHT22;1272;53.332;9.860;2023-02-17T02:36:24;8.80;99.90
2523;DHT22;1272;53.332;9.860;2023-02-17T02:39:02;8.80;99.90
2523;DHT22;1272;53.332;9.860;2023-02-17T02:41:36;8.90;99.90
2523;DHT22;1272;53.332;9.860;2023-02-17T02:44:04;8.90;99.90
2523;DHT22;1272;53.332;9.860;2023-02-17T02:46:31;8.80;99.90
2523;DHT22;1272;53.332;9.860;2023-02-17T02:48:56;8.80;99.90
2523;DHT22;1272;53.332;9.860;2023-02-17T02:51:29;8.80;99.90
2523;DHT22;1272;53.332;9.860;2023-02-17T02:59:48;8.90;99.90
2523;DHT22;1272;53.332;9.860;2023-02-17T03:07:58;8.90;99.90
2523;DHT22;1272;53.332;9.860;2023-02-17T03:10:26;8.90;99.90
2523;DHT22;1272;53.332;9.860;2023-02-17T03:12:51;9.00;99.90
2523;DHT22;1272;53.332;9.860;2023-02-17T03:15:27;9.00;99.90
2523;DHT22;1272;53.332;9.860;2023-02-17T03:17:58;9.00;99.90
2523;DHT22;1272;53.332;9.860;2023-02-17T03:20:27;9.00;99.90
2523;DHT22;1272;53.332;9.860;2023-02-17T03:22:54;9.10;99.90
2523;DHT22;1272;53.332;9.860;2023-02-17T03:25:20;9.00;99.90
2523;DHT22;1272;53.332;9.860;2023-02-17T03:27:46;9.10;99.90
2523;DHT22;1272;53.332;9.860;2023-02-17T03:30:12;9.00;99.90
2523;DHT22;1272;53.332;9.860;2023-02-17T03:32:38;9.10;99.90
2523;DHT22;1272;53.332;9.860;2023-02-17T03:35:05;9.10;99.90
2523;DHT22;1272;53.332;9.860;2023-02-17T03:37:31;9.10;99.90
2523;DHT22;1272;53.332;9.860;2023-02-17T03:39:56;9.10;99.90
2523;DHT22;1272;53.332;9.860;2023-02-17T03:42:22;9.10;99.90
2523;DHT22;1272;53.332;9.860;2023-02-17T03:44:48;9.00;99.90
2523;DHT22;1272;53.332;9.860;2023-02-17T03:47:13;9.00;99.90
2523;DHT22;1272;53.332;9.860;2023-02-17T03:49:39;9.10;99.90
2523;DHT22;1272;53.332;9.860;2023-02-17T03:52:05;9.00;99.90
2523;DHT22;1272;53.332;9.860;2023-02-17T03:54:30;9.00;99.90
2523;DHT22;1272;53.332;9.860;2023-02-17T03:56:56;9.10;99.90
2523;DHT22;1272;53.332;9.860;2023-02-17T03:59:23;9.10;99.90
2523;DHT22;1272;53.332;9.860;2023-02-17T04:01:49;9.10;99.90
2523;DHT22;1272;53.332;9.860;2023-02-17T04:04:15;9.10;99.90
2523;DHT22;1272;53.332;9.860;2023-02-17T04:06:41;9.10;99.90
2523;DHT22;1272;53.332;9.860;2023-02-17T04:09:06;9.10;99.90
2523;DHT22;1272;53.332;9.860;2023-02-17T04:11:32;9.10;99.90
2523;DHT22;1272;53.332;9.860;2023-02-17T04:13:58;9.10;99.90
2523;DHT22;1272;53.332;9.860;2023-02-17T04:16:23;9.00;99.90
2523;DHT22;1272;53.332;9.860;2023-02-17T04:18:49;9.10;99.90
2523;DHT22;1272;53.332;9.860;2023-02-17T04:21:15;9.10;99.90
2523;DHT22;1272;53.332;9.860;2023-02-17T04:23:40;9.10;99.90
2523;DHT22;1272;53.332;9.860;2023-02-17T04:26:07;9.10;99.90
2523;DHT22;1272;53.332;9.860;2023-02-17T04:28:38;9.10;99.90
2523;DHT22;1272;53.332;9.860;2023-02-17T04:31:04;9.20;99.90
2523;DHT22;1272;53.332;9.860;2023-02-17T04:33:30;9.20;99.90
2523;DHT22;1272;53.332;9.860;2023-02-17T04:35:55;9.20;99.90
2523;DHT22;1272;53.332;9.860;2023-02-17T04:38:26;9.10;99.90
2523;DHT22;1272;53.332;9.860;2023-02-17T04:40:54;9.20;99.90
2523;DHT22;1272;53.332;9.860;2023-02-17T04:43:20;9.20;99.90
2523;DHT22;1272;53.332;9.860;2023-02-17T04:45:46;9.20;99.90
2523;DHT22;1272;53.332;9.860;2023-02-17T04:48:12;9.20;99.90
2523;DHT22;1272;53.332;9.860;2023-02-17T04:50:37;9.30;99.90
2523;DHT22;1272;53.332;9.860;2023-02-17T04:53:03;9.20;99.90
2523;DHT22;1272;53.332;9.860;2023-02-17T04:55:29;9.20;99.90
2523;DHT22;1272;53.332;9.860;2023-02-17T04:57:56;9.20;99.90
2523;DHT22;1272;53.332;9.860;2023-02-17T05:00:21;9.20;99.90
2523;DHT22;1272;53.332;9.860;2023-02-17T05:02:47;9.20;99.90
2523;DHT22;1272;53.332;9.860;2023-02-17T05:05:13;9.20;99.90
2523;DHT22;1272;53.332;9.860;2023-02-17T05:07:44;9.20;99.90
2523;DHT22;1272;53.332;9.860;2023-02-17T05:10:11;9.30;99.90
2523;DHT22;1272;53.332;9.860;2023-02-17T05:12:37;9.30;99.90
2523;DHT22;1272;53.332;9.860;2023-02-17T05:15:04;9.40;99.90
2523;DHT22;1272;53.332;9.860;2023-02-17T05:17:30;9.40;99.90
2523;DHT22;1272;53.332;9.860;2023-02-17T05:20:34;9.30;99.90
2523;DHT22;1272;53.332;9.860;2023-02-17T05:23:02;9.30;99.90
2523;DHT22;1272;53.332;9.860;2023-02-17T05:25:28;9.30;99.90
2523;DHT22;1272;53.332;9.860;2023-02-17T05:27:54;9.30;99.90
2523;DHT22;1272;53.332;9.860;2023-02-17T05:30:19;9.30;99.90
2523;DHT22;1272;53.332;9.860;2023-02-17T05:32:45;9.30;99.90
2523;DHT22;1272;53.332;9.860;2023-02-17T05:35:11;9.30;99.90
2523;DHT22;1272;53.332;9.860;2023-02-17T05:37:37;9.30;99.90
2523;DHT22;1272;53.332;9.860;2023-02-17T05:40:03;9.40;99.90
2523;DHT22;1272;53.332;9.860;2023-02-17T05:42:29;9.30;99.90
2523;DHT22;1272;53.332;9.860;2023-02-17T05:44:55;9.30;99.90
2523;DHT22;1272;53.332;9.860;2023-02-17T05:47:26;9.40;99.90
2523;DHT22;1272;53.332;9.860;2023-02-17T05:49:52;9.40;99.90
2523;DHT22;1272;53.332;9.860;2023-02-17T05:52:17;9.40;99.90
2523;DHT22;1272;53.332;9.860;2023-02-17T05:54:43;9.40;99.90
2523;DHT22;1272;53.332;9.860;2023-02-17T05:57:09;9.40;99.90
2523;DHT22;1272;53.332;9.860;2023-02-17T05:59:38;9.40;99.90
2523;DHT22;1272;53.332;9.860;2023-02-17T06:02:06;9.40;99.90
2523;DHT22;1272;53.332;9.860;2023-02-17T06:04:38;9.40;99.90
2523;DHT22;1272;53.332;9.860;2023-02-17T06:07:03;9.40;99.90
2523;DHT22;1272;53.332;9.860;2023-02-17T06:09:29;9.40;99.90
2523;DHT22;1272;53.332;9.860;2023-02-17T06:11:55;9.40;99.90
2523;DHT22;1272;53.332;9.860;2023-02-17T06:14:21;9.40;99.90
2523;DHT22;1272;53.332;9.860;2023-02-17T06:16:46;9.40;99.90
2523;DHT22;1272;53.332;9.860;2023-02-17T06:19:12;9.40;99.90
2523;DHT22;1272;53.332;9.860;2023-02-17T06:21:38;9.40;99.90
2523;DHT22;1272;53.332;9.860;2023-02-17T06:24:05;9.40;99.90
2523;DHT22;1272;53.332;9.860;2023-02-17T06:26:30;9.40;99.90
2523;DHT22;1272;53.332;9.860;2023-02-17T06:28:56;9.40;99.90
2523;DHT22;1272;53.332;9.860;2023-02-17T06:31:22;9.40;99.90
2523;DHT22;1272;53.332;9.860;2023-02-17T06:33:47;9.40;99.90
2523;DHT22;1272;53.332;9.860;2023-02-17T06:36:13;9.40;99.90
2523;DHT22;1272;53.332;9.860;2023-02-17T06:38:39;9.40;99.90
2523;DHT22;1272;53.332;9.860;2023-02-17T06:41:04;9.40;99.90
2523;DHT22;1272;53.332;9.860;2023-02-17T06:43:30;9.40;99.90
2523;DHT22;1272;53.332;9.860;2023-02-17T06:45:56;9.40;99.90
2523;DHT22;1272;53.332;9.860;2023-02-17T06:48:23;9.40;99.90
2523;DHT22;1272;53.332;9.860;2023-02-17T06:50:49;9.40;99.90
2523;DHT22;1272;53.332;9.860;2023-02-17T06:53:14;9.40;99.90
2523;DHT22;1272;53.332;9.860;2023-02-17T06:55:43;9.50;99.90
2523;DHT22;1272;53.332;9.860;2023-02-17T06:58:09;9.50;99.90
2523;DHT22;1272;53.332;9.860;2023-02-17T07:00:34;9.50;99.90
2523;DHT22;1272;53.332;9.860;2023-02-17T07:03:00;9.50;99.90
2523;DHT22;1272;53.332;9.860;2023-02-17T07:05:26;9.50;99.90
2523;DHT22;1272;53.332;9.860;2023-02-17T07:07:51;9.50;99.90
2523;DHT22;1272;53.332;9.860;2023-02-17T07:10:18;9.50;99.90
2523;DHT22;1272;53.332;9.860;2023-02-17T07:12:43;9.50;99.90
2523;DHT22;1272;53.332;9.860;2023-02-17T07:15:09;9.60;99.90
2523;DHT22;1272;53.332;9.860;2023-02-17T07:17:35;9.50;99.90
2523;DHT22;1272;53.332;9.860;2023-02-17T07:20:01;9.50;99.90
2523;DHT22;1272;53.332;9.860;2023-02-17T07:22:26;9.50;99.90
2523;DHT22;1272;53.332;9.860;2023-02-17T07:24:52;9.50;99.90
2523;DHT22;1272;53.332;9.860;2023-02-17T07:27:19;9.50;99.90
2523;DHT22;1272;53.332;9.860;2023-02-17T07:29:44;9.50;99.90
2523;DHT22;1272;53.332;9.860;2023-02-17T07:32:10;9.50;99.90
2523;DHT22;1272;53.332;9.860;2023-02-17T07:34:36;9.50;99.90
2523;DHT22;1272;53.332;9.860;2023-02-17T07:37:03;9.50;99.90
2523;DHT22;1272;53.332;9.860;2023-02-17T07:39:28;9.50;99.90
2523;DHT22;1272;53.332;9.860;2023-02-17T07:41:54;9.50;99.90
2523;DHT22;1272;53.332;9.860;2023-02-17T07:44:25;9.50;99.90
2523;DHT22;1272;53.332;9.860;2023-02-17T07:46:51;9.60;99.90
2523;DHT22;1272;53.332;9.860;2023-02-17T07:49:16;9.50;99.90
2523;DHT22;1272;53.332;9.860;2023-02-17T07:51:42;9.60;99.90
2523;DHT22;1272;53.332;9.860;2023-02-17T07:54:08;9.50;99.90
2523;DHT22;1272;53.332;9.860;2023-02-17T07:56:33;9.50;99.90
2523;DHT22;1272;53.332;9.860;2023-02-17T07:58:59;9.60;99.90
2523;DHT22;1272;53.332;9.860;2023-02-17T08:01:25;9.60;99.90
2523;DHT22;1272;53.332;9.860;2023-02-17T08:03:51;9.60;99.90
2523;DHT22;1272;53.332;9.860;2023-02-17T08:06:22;9.60;99.90
2523;DHT22;1272;53.332;9.860;2023-02-17T08:08:49;9.60;99.90
2523;DHT22;1272;53.332;9.860;2023-02-17T08:11:34;9.60;99.90
2523;DHT22;1272;53.332;9.860;2023-02-17T08:14:20;9.50;99.90
2523;DHT22;1272;53.332;9.860;2023-02-17T08:16:46;9.50;99.90
2523;DHT22;1272;53.332;9.860;2023-02-17T08:19:12;9.50;99.90
2523;DHT22;1272;53.332;9.860;2023-02-17T08:21:40;9.50;99.90
2523;DHT22;1272;53.332;9.860;2023-02-17T08:24:06;9.50;99.90
2523;DHT22;1272;53.332;9.860;2023-02-17T08:26:32;9.60;99.90
2523;DHT22;1272;53.332;9.860;2023-02-17T08:28:58;9.60;99.90
2523;DHT22;1272;53.332;9.860;2023-02-17T08:31:29;9.60;99.90
2523;DHT22;1272;53.332;9.860;2023-02-17T08:33:55;9.60;99.90
2523;DHT22;1272;53.332;9.860;2023-02-17T08:36:22;9.60;99.90
2523;DHT22;1272;53.332;9.860;2023-02-17T08:38:50;9.60;99.90
2523;DHT22;1272;53.332;9.860;2023-02-17T08:41:33;9.60;99.90
2523;DHT22;1272;53.332;9.860;2023-02-17T08:44:03;9.60;99.90
2523;DHT22;1272;53.332;9.860;2023-02-17T08:46:29;9.60;99.90
2523;DHT22;1272;53.332;9.860;2023-02-17T08:48:55;9.60;99.90
2523;DHT22;1272;53.332;9.860;2023-02-17T08:51:22;9.60;99.90
2523;DHT22;1272;53.332;9.860;2023-02-17T08:53:57;9.60;99.90
2523;DHT22;1272;53.332;9.860;2023-02-17T08:56:24;9.60;99.90
2523;DHT22;1272;53.332;9.860;2023-02-17T08:58:54;9.50;99.90
2523;DHT22;1272;53.332;9.860;2023-02-17T09:01:20;9.60;99.90
2523;DHT22;1272;53.332;9.860;2023-02-17T09:03:48;9.60;99.90
2523;DHT22;1272;53.332;9.860;2023-02-17T09:06:14;9.60;99.90
2523;DHT22;1272;53.332;9.860;2023-02-17T09:08:40;9.60;99.90
2523;DHT22;1272;53.332;9.860;2023-02-17T09:11:07;9.60;99.90
2523;DHT22;1272;53.332;9.860;2023-02-17T09:13:34;9.60;99.90
2523;DHT22;1272;53.332;9.860;2023-02-17T09:16:00;9.60;99.90
2523;DHT22;1272;53.332;9.860;2023-02-17T09:18:27;9.70;99.90
2523;DHT22;1272;53.332;9.860;2023-02-17T09:20:53;9.70;99.90
2523;DHT22;1272;53.332;9.860;2023-02-17T09:23:19;9.70;99.90
2523;DHT22;1272;53.332;9.860;2023-02-17T09:25:44;9.70;99.90
2523;DHT22;1272;53.332;9.860;2023-02-17T09:28:10;9.70;99.90
2523;DHT22;1272;53.332;9.860;2023-02-17T09:30:38;9.70;99.90
2523;DHT22;1272;53.332;9.860;2023-02-17T09:33:04;9.70;99.90
2523;DHT22;1272;53.332;9.860;2023-02-17T09:35:30;9.70;99.90
2523;DHT22;1272;53.332;9.860;2023-02-17T09:37:57;9.70;99.90
2523;DHT22;1272;53.332;9.860;2023-02-17T09:43:01;9.70;99.90
2523;DHT22;1272;53.332;9.860;2023-02-17T09:45:31;9.70;99.90
2523;DHT22;1272;53.332;9.860;2023-02-17T09:48:10;9.70;99.90
2523;DHT22;1272;53.332;9.860;2023-02-17T09:50:42;9.70;99.90
2523;DHT22;1272;53.332;9.860;2023-02-17T09:55:57;9.80;99.90
2523;DHT22;1272;53.332;9.860;2023-02-17T09:58:37;9.80;99.90
2523;DHT22;1272;53.332;9.860;2023-02-17T10:01:08;9.80;99.90
2523;DHT22;1272;53.332;9.860;2023-02-17T10:03:47;9.80;99.90
2523;DHT22;1272;53.332;9.860;2023-02-17T10:06:23;9.80;99.90
2523;DHT22;1272;53.332;9.860;2023-02-17T10:12:09;9.80;99.90
2523;DHT22;1272;53.332;9.860;2023-02-17T10:14:53;9.90;99.90
2523;DHT22;1272;53.332;9.860;2023-02-17T10:18:30;9.90;99.90
2523;DHT22;1272;53.332;9.860;2023-02-17T10:20:40;9.90;99.90
2523;DHT22;1272;53.332;9.860;2023-02-17T10:23:19;9.90;99.90
2523;DHT22;1272;53.332;9.860;2023-02-17T10:28:51;9.90;99.90
2523;DHT22;1272;53.332;9.860;2023-02-17T10:31:44;9.90;99.90
2523;DHT22;1272;53.332;9.860;2023-02-17T10:39:48;10.00;99.90
2523;DHT22;1272;53.332;9.860;2023-02-17T10:44:48;10.00;99.90
2523;DHT22;1272;53.332;9.860;2023-02-17T10:47:15;10.00;99.90
2523;DHT22;1272;53.332;9.860;2023-02-17T10:49:44;10.10;99.90
2523;DHT22;1272;53.332;9.860;2023-02-17T10:52:23;10.10;99.90
2523;DHT22;1272;53.332;9.860;2023-02-17T10:55:03;10.10;99.90
2523;DHT22;1272;53.332;9.860;2023-02-17T10:57:34;10.10;99.90
2523;DHT22;1272;53.332;9.860;2023-02-17T11:00:03;10.10;99.90
2523;DHT22;1272;53.332;9.860;2023-02-17T11:04:55;10.20;99.90
2523;DHT22;1272;53.332;9.860;2023-02-17T11:07:31;10.10;99.90
2523;DHT22;1272;53.332;9.860;2023-02-17T11:10:00;10.20;99.90
2523;DHT22;1272;53.332;9.860;2023-02-17T11:12:40;10.20;99.90
2523;DHT22;1272;53.332;9.860;2023-02-17T11:15:18;10.20;99.90
2523;DHT22;1272;53.332;9.860;2023-02-17T11:17:45;10.20;99.90
2523;DHT22;1272;53.332;9.860;2023-02-17T11:22:42;10.20;99.90
2523;DHT22;1272;53.332;9.860;2023-02-17T11:25:27;10.30;99.90
2523;DHT22;1272;53.332;9.860;2023-02-17T11:27:59;10.20;99.90
2523;DHT22;1272;53.332;9.860;2023-02-17T11:30:27;10.30;99.90
2523;DHT22;1272;53.332;9.860;2023-02-17T11:32:54;10.30;99.90
2523;DHT22;1272;53.332;9.860;2023-02-17T11:37:59;10.30;99.90
2523;DHT22;1272;53.332;9.860;2023-02-17T11:40:28;10.30;99.90
2523;DHT22;1272;53.332;9.860;2023-02-17T11:42:58;10.30;99.90
2523;DHT22;1272;53.332;9.860;2023-02-17T11:45:59;10.40;99.90
2523;DHT22;1272;53.332;9.860;2023-02-17T11:51:42;10.30;99.90
2523;DHT22;1272;53.332;9.860;2023-02-17T12:02:38;10.40;99.90
2523;DHT22;1272;53.332;9.860;2023-02-17T12:05:35;10.30;99.90
2523;DHT22;1272;53.332;9.860;2023-02-17T12:08:22;10.40;99.90
2523;DHT22;1272;53.332;9.860;2023-02-17T12:11:25;10.50;99.90
2523;DHT22;1272;53.332;9.860;2023-02-17T12:14:53;10.50;99.90
2523;DHT22;1272;53.332;9.860;2023-02-17T12:17:18;10.40;99.90
2523;DHT22;1272;53.332;9.860;2023-02-17T12:20:15;10.50;99.90
2523;DHT22;1272;53.332;9.860;2023-02-17T12:25:32;10.40;99.90
2523;DHT22;1272;53.332;9.860;2023-02-17T12:33:59;10.50;99.90
2523;DHT22;1272;53.332;9.860;2023-02-17T12:36:37;10.50;99.90
2523;DHT22;1272;53.332;9.860;2023-02-17T12:39:37;10.40;99.90
2523;DHT22;1272;53.332;9.860;2023-02-17T12:42:35;10.50;99.90
2523;DHT22;1272;53.332;9.860;2023-02-17T12:45:17;10.50;99.90
2523;DHT22;1272;53.332;9.860;2023-02-17T12:48:20;10.50;99.90
2523;DHT22;1272;53.332;9.860;2023-02-17T12:50:41;10.50;99.90
2523;DHT22;1272;53.332;9.860;2023-02-17T12:53:50;10.50;99.90
2523;DHT22;1272;53.332;9.860;2023-02-17T12:58:54;10.50;99.90
2523;DHT22;1272;53.332;9.860;2023-02-17T13:01:24;10.60;99.90
2523;DHT22;1272;53.332;9.860;2023-02-17T13:03:50;10.60;99.90
2523;DHT22;1272;53.332;9.860;2023-02-17T13:06:25;10.60;99.90
2523;DHT22;1272;53.332;9.860;2023-02-17T13:08:57;10.60;99.90
2523;DHT22;1272;53.332;9.860;2023-02-17T13:11:29;10.60;99.90
2523;DHT22;1272;53.332;9.860;2023-02-17T13:13:55;10.60;99.90
2523;DHT22;1272;53.332;9.860;2023-02-17T13:16:21;10.60;99.90
2523;DHT22;1272;53.332;9.860;2023-02-17T13:18:50;10.60;99.90
2523;DHT22;1272;53.332;9.860;2023-02-17T13:21:26;10.60;99.90
2523;DHT22;1272;53.332;9.860;2023-02-17T13:24:04;10.60;99.90
2523;DHT22;1272;53.332;9.860;2023-02-17T13:26:40;10.60;99.90
2523;DHT22;1272;53.332;9.860;2023-02-17T13:31:49;10.70;99.90
2523;DHT22;1272;53.332;9.860;2023-02-17T13:34:25;10.60;99.90
2523;DHT22;1272;53.332;9.860;2023-02-17T13:36:51;10.60;99.90
2523;DHT22;1272;53.332;9.860;2023-02-17T13:41:54;10.60;99.90
2523;DHT22;1272;53.332;9.860;2023-02-17T13:46:50;10.70;99.90
2523;DHT22;1272;53.332;9.860;2023-02-17T13:49:24;10.70;99.90
2523;DHT22;1272;53.332;9.860;2023-02-17T13:51:52;10.70;99.90
2523;DHT22;1272;53.332;9.860;2023-02-17T13:54:20;10.70;99.90
2523;DHT22;1272;53.332;9.860;2023-02-17T13:56:51;10.70;99.90
2523;DHT22;1272;53.332;9.860;2023-02-17T13:59:24;10.70;99.90
2523;DHT22;1272;53.332;9.860;2023-02-17T14:01:51;10.70;99.90
2523;DHT22;1272;53.332;9.860;2023-02-17T14:04:29;10.70;99.90
2523;DHT22;1272;53.332;9.860;2023-02-17T14:06:59;10.80;99.90
2523;DHT22;1272;53.332;9.860;2023-02-17T14:09:29;10.70;99.90
2523;DHT22;1272;53.332;9.860;2023-02-17T14:12:01;10.70;99.90
2523;DHT22;1272;53.332;9.860;2023-02-17T14:14:32;10.70;99.90
2523;DHT22;1272;53.332;9.860;2023-02-17T14:17:29;10.70;99.90
2523;DHT22;1272;53.332;9.860;2023-02-17T14:19:56;10.70;99.90
2523;DHT22;1272;53.332;9.860;2023-02-17T14:22:24;10.70;99.90
2523;DHT22;1272;53.332;9.860;2023-02-17T14:25:03;10.70;99.90
2523;DHT22;1272;53.332;9.860;2023-02-17T14:27:43;10.70;99.90
2523;DHT22;1272;53.332;9.860;2023-02-17T14:35:56;10.80;99.90
2523;DHT22;1272;53.332;9.860;2023-02-17T14:38:37;10.90;99.90
2523;DHT22;1272;53.332;9.860;2023-02-17T14:41:04;10.90;99.90
2523;DHT22;1272;53.332;9.860;2023-02-17T14:43:31;10.80;99.90
2523;DHT22;1272;53.332;9.860;2023-02-17T14:45:57;10.80;99.90
2523;DHT22;1272;53.332;9.860;2023-02-17T14:48:22;10.90;99.90
2523;DHT22;1272;53.332;9.860;2023-02-17T14:50:49;10.80;99.90
2523;DHT22;1272;53.332;9.860;2023-02-17T14:53:29;10.80;99.90
2523;DHT22;1272;53.332;9.860;2023-02-17T14:56:22;10.90;99.90
2523;DHT22;1272;53.332;9.860;2023-02-17T14:58:49;10.80;99.90
2523;DHT22;1272;53.332;9.860;2023-02-17T15:01:19;10.80;99.90
2523;DHT22;1272;53.332;9.860;2023-02-17T15:03:45;10.80;99.90
2523;DHT22;1272;53.332;9.860;2023-02-17T15:06:23;10.90;99.90
2523;DHT22;1272;53.332;9.860;2023-02-17T15:08:50;10.90;99.90
2523;DHT22;1272;53.332;9.860;2023-02-17T15:11:27;10.80;99.90
2523;DHT22;1272;53.332;9.860;2023-02-17T15:13:54;10.80;99.90
2523;DHT22;1272;53.332;9.860;2023-02-17T15:16:20;10.80;99.90
2523;DHT22;1272;53.332;9.860;2023-02-17T15:18:45;10.80;99.90
2523;DHT22;1272;53.332;9.860;2023-02-17T15:21:26;10.90;99.90
2523;DHT22;1272;53.332;9.860;2023-02-17T15:23:53;10.90;99.90
2523;DHT22;1272;53.332;9.860;2023-02-17T15:26:20;11.00;99.90
2523;DHT22;1272;53.332;9.860;2023-02-17T15:28:46;10.90;99.90
2523;DHT22;1272;53.332;9.860;2023-02-17T15:31:13;10.90;99.90
2523;DHT22;1272;53.332;9.860;2023-02-17T15:33:42;10.70;99.90
2523;DHT22;1272;53.332;9.860;2023-02-17T15:36:15;10.70;99.90
2523;DHT22;1272;53.332;9.860;2023-02-17T15:38:41;10.60;99.90
2523;DHT22;1272;53.332;9.860;2023-02-17T15:41:16;10.50;99.90
2523;DHT22;1272;53.332;9.860;2023-02-17T15:43:44;10.50;99.90
2523;DHT22;1272;53.332;9.860;2023-02-17T15:46:16;10.40;99.90
2523;DHT22;1272;53.332;9.860;2023-02-17T15:48:43;10.40;99.90
2523;DHT22;1272;53.332;9.860;2023-02-17T15:51:14;10.30;99.90
2523;DHT22;1272;53.332;9.860;2023-02-17T15:53:41;10.30;99.90
2523;DHT22;1272;53.332;9.860;2023-02-17T15:56:29;10.20;99.90
2523;DHT22;1272;53.332;9.860;2023-02-17T15:58:56;10.30;99.90
2523;DHT22;1272;53.332;9.860;2023-02-17T16:01:30;10.30;99.90
2523;DHT22;1272;53.332;9.860;2023-02-17T16:03:57;10.10;99.90
2523;DHT22;1272;53.332;9.860;2023-02-17T16:06:24;10.10;99.90
2523;DHT22;1272;53.332;9.860;2023-02-17T16:08:54;10.00;99.90
2523;DHT22;1272;53.332;9.860;2023-02-17T16:11:20;9.90;99.90
2523;DHT22;1272;53.332;9.860;2023-02-17T16:13:47;9.90;99.90
2523;DHT22;1272;53.332;9.860;2023-02-17T16:16:24;9.80;99.90
2523;DHT22;1272;53.332;9.860;2023-02-17T16:18:50;9.80;99.90
2523;DHT22;1272;53.332;9.860;2023-02-17T16:21:17;9.70;99.90
2523;DHT22;1272;53.332;9.860;2023-02-17T16:23:43;9.70;99.90
2523;DHT22;1272;53.332;9.860;2023-02-17T16:26:29;9.60;99.90
2523;DHT22;1272;53.332;9.860;2023-02-17T16:28:56;9.70;99.90
2523;DHT22;1272;53.332;9.860;2023-02-17T16:31:22;9.60;99.90
2523;DHT22;1272;53.332;9.860;2023-02-17T16:33:48;9.60;99.90
2523;DHT22;1272;53.332;9.860;2023-02-17T16:36:17;9.50;99.90
2523;DHT22;1272;53.332;9.860;2023-02-17T16:38:44;9.50;99.90
2523;DHT22;1272;53.332;9.860;2023-02-17T16:41:17;9.50;99.90
2523;DHT22;1272;53.332;9.860;2023-02-17T16:43:44;9.40;99.90
2523;DHT22;1272;53.332;9.860;2023-02-17T16:46:29;9.40;99.90
2523;DHT22;1272;53.332;9.860;2023-02-17T16:48:56;9.30;99.90
2523;DHT22;1272;53.332;9.860;2023-02-17T16:51:22;9.30;99.90
2523;DHT22;1272;53.332;9.860;2023-02-17T16:53:48;9.20;99.90
2523;DHT22;1272;53.332;9.860;2023-02-17T16:56:27;9.20;99.90
2523;DHT22;1272;53.332;9.860;2023-02-17T16:58:54;9.20;99.90
2523;DHT22;1272;53.332;9.860;2023-02-17T17:01:20;9.10;99.90
2523;DHT22;1272;53.332;9.860;2023-02-17T17:03:45;9.00;99.90
2523;DHT22;1272;53.332;9.860;2023-02-17T17:08:45;8.90;99.90
2523;DHT22;1272;53.332;9.860;2023-02-17T17:11:15;8.90;99.90
2523;DHT22;1272;53.332;9.860;2023-02-17T17:13:43;8.80;99.90
2523;DHT22;1272;53.332;9.860;2023-02-17T17:16:24;8.70;99.90
2523;DHT22;1272;53.332;9.860;2023-02-17T17:18:50;8.60;99.90
2523;DHT22;1272;53.332;9.860;2023-02-17T17:21:19;8.60;99.90
2523;DHT22;1272;53.332;9.860;2023-02-17T17:23:45;8.50;99.90
2523;DHT22;1272;53.332;9.860;2023-02-17T17:26:25;8.50;99.90
2523;DHT22;1272;53.332;9.860;2023-02-17T17:28:52;8.50;99.90
2523;DHT22;1272;53.332;9.860;2023-02-17T17:31:18;8.50;99.90
2523;DHT22;1272;53.332;9.860;2023-02-17T17:33:46;8.50;99.90
2523;DHT22;1272;53.332;9.860;2023-02-17T17:36:28;8.40;99.90
2523;DHT22;1272;53.332;9.860;2023-02-17T17:38:55;8.40;99.90
2523;DHT22;1272;53.332;9.860;2023-02-17T17:41:22;8.50;99.90
2523;DHT22;1272;53.332;9.860;2023-02-17T17:43:49;8.40;99.90
2523;DHT22;1272;53.332;9.860;2023-02-17T17:46:24;8.40;99.90
2523;DHT22;1272;53.332;9.860;2023-02-17T17:48:53;8.30;99.90
2523;DHT22;1272;53.332;9.860;2023-02-17T17:51:21;8.30;99.90
2523;DHT22;1272;53.332;9.860;2023-02-17T17:53:47;8.30;99.90
2523;DHT22;1272;53.332;9.860;2023-02-17T17:56:16;8.20;99.90
2523;DHT22;1272;53.332;9.860;2023-02-17T17:58:42;8.20;99.90
2523;DHT22;1272;53.332;9.860;2023-02-17T18:01:09;8.20;99.90